Time;durP1;ratioP1;P1;durP2;ratioP2;P2;SDS_P1;SDS_P2;PMS_P1;PMS_P2;Temp;Humidity;BMP_temperature;BMP_pressure;BME280_temperature;BME280_humidity;BME280_pressure;Samples;Min_cycle;Max_cycle;Signal;HPM_P1;HPM_P2
2021/08/17 00:37:45;;;;;;;7.10;5.07;;;;;;;18.78;44.37;93358.44;5076658;27;20647;-57
2021/08/17 00:40:11;;;;;;;8.15;4.30;;;;;;;18.51;44.62;93363.00;5078786;28;20440;-56
2021/08/17 00:42:41;;;;;;;15.95;6.50;;;;;;;18.30;44.68;93357.44;5077180;28;20028;-54
2021/08/17 00:45:11;;;;;;;10.57;5.10;;;;;;;18.12;45.55;93349.34;5075210;28;20031;-54
2021/08/17 00:47:37;;;;;;;14.38;5.47;;;;;;;18.03;46.92;93350.16;5075769;28;20035;-54
2021/08/17 00:50:03;;;;;;;6.35;4.32;;;;;;;17.93;47.21;93357.16;5077023;28;20024;-51
2021/08/17 00:52:28;;;;;;;7.43;4.95;;;;;;;17.78;47.55;93351.97;5073508;28;20017;-52
2021/08/17 00:54:53;;;;;;;7.15;4.65;;;;;;;17.52;48.34;93325.81;5055612;28;20020;-54
2021/08/17 00:57:19;;;;;;;8.77;5.15;;;;;;;17.65;47.89;93352.50;5053050;28;20032;-55
2021/08/17 00:59:44;;;;;;;12.10;5.43;;;;;;;17.56;47.97;93345.63;5066403;28;20028;-55
2021/08/17 01:02:10;;;;;;;9.43;5.03;;;;;;;17.49;48.00;93345.78;5048450;28;20432;-53
2021/08/17 01:04:40;;;;;;;9.27;5.22;;;;;;;17.44;48.39;93339.94;5066033;28;20513;-55
2021/08/17 01:07:07;;;;;;;12.63;5.50;;;;;;;17.30;48.65;93341.78;5086547;28;20044;-54
2021/08/17 01:09:32;;;;;;;7.95;5.25;;;;;;;17.29;48.59;93336.78;5086205;28;20103;-55
2021/08/17 01:12:03;;;;;;;8.27;5.75;;;;;;;17.25;48.64;93336.53;5086413;28;20035;-51
2021/08/17 01:14:28;;;;;;;6.13;4.90;;;;;;;17.16;48.62;93326.88;5085591;28;20103;-58
2021/08/17 01:16:54;;;;;;;11.50;5.20;;;;;;;17.19;48.51;93336.13;5080374;28;20120;-54
2021/08/17 01:19:21;;;;;;;8.75;5.07;;;;;;;17.11;48.47;93339.09;5072694;28;20023;-56
2021/08/17 01:21:47;;;;;;;8.20;5.38;;;;;;;17.09;49.11;93333.38;5072430;28;20021;-56
2021/08/17 01:24:12;;;;;;;10.35;5.82;;;;;;;17.03;49.69;93338.53;5072663;28;20027;-56
2021/08/17 01:26:38;;;;;;;6.80;5.22;;;;;;;16.97;49.07;93334.59;5072249;28;20390;-55
2021/08/17 01:29:04;;;;;;;7.53;5.03;;;;;;;17.00;49.30;93327.84;5072660;28;20053;-56
2021/08/17 01:31:31;;;;;;;7.18;5.03;;;;;;;17.00;49.14;93327.84;5072414;28;20099;-56
2021/08/17 01:33:56;;;;;;;6.43;5.82;;;;;;;16.98;49.48;93327.72;5072582;28;20025;-59
2021/08/17 01:36:21;;;;;;;9.68;4.93;;;;;;;16.98;49.51;93327.72;5072066;28;20052;-58
2021/08/17 01:38:48;;;;;;;6.20;5.13;;;;;;;16.97;49.28;93320.66;5072440;28;20028;-57
2021/08/17 01:41:14;;;;;;;12.60;5.00;;;;;;;16.81;49.39;93327.91;5072392;28;20051;-56
2021/08/17 01:43:40;;;;;;;14.82;5.40;;;;;;;16.84;49.86;93326.72;5071834;28;20111;-57
2021/08/17 01:46:05;;;;;;;7.70;5.30;;;;;;;16.81;50.21;93328.63;5052196;28;20119;-57
2021/08/17 01:48:32;;;;;;;12.45;5.30;;;;;;;16.77;49.78;93319.25;5052101;28;20496;-57
2021/08/17 01:50:59;;;;;;;8.15;5.35;;;;;;;16.73;49.62;93324.56;5052180;28;20033;-59
2021/08/17 01:53:26;;;;;;;11.88;5.55;;;;;;;16.65;50.42;93319.88;5052104;28;20025;-58
2021/08/17 01:55:52;;;;;;;8.93;5.32;;;;;;;16.71;50.01;93322.38;5051750;28;20025;-58
2021/08/17 01:58:17;;;;;;;5.43;4.93;;;;;;;16.67;49.11;93316.53;5051782;28;20061;-57
2021/08/17 02:00:45;;;;;;;5.30;4.78;;;;;;;16.72;49.78;93321.03;5051711;28;20056;-55
2021/08/17 02:03:10;;;;;;;6.90;5.53;;;;;;;16.59;49.86;93310.38;5051830;28;20028;-57
2021/08/17 02:05:35;;;;;;;6.20;5.43;;;;;;;16.65;51.04;93319.88;5060052;28;20497;-57
2021/08/17 02:08:04;;;;;;;9.18;5.45;;;;;;;16.56;52.08;93326.25;5071862;28;20020;-55
2021/08/17 02:10:30;;;;;;;9.15;5.35;;;;;;;16.57;51.48;93324.16;5071516;28;20436;-48
2021/08/17 02:12:56;;;;;;;6.65;4.90;;;;;;;16.51;51.25;93321.69;5071512;28;20035;-49
2021/08/17 02:15:21;;;;;;;7.00;5.38;;;;;;;16.50;50.92;93305.56;5071325;28;20020;-49
2021/08/17 02:17:46;;;;;;;5.78;4.97;;;;;;;16.48;51.22;93317.28;5071770;28;20481;-47
2021/08/17 02:20:12;;;;;;;5.03;4.55;;;;;;;16.29;51.54;93306.19;5071572;28;20473;-47
2021/08/17 02:22:38;;;;;;;5.53;5.00;;;;;;;16.23;52.36;93308.53;5071400;28;20025;-46
2021/08/17 02:25:04;;;;;;;6.88;6.18;;;;;;;16.26;52.07;93321.28;5071504;28;20112;-46
2021/08/17 02:27:36;;;;;;;6.35;5.20;;;;;;;16.31;52.61;93325.06;5071493;28;20052;-48
2021/08/17 02:30:05;;;;;;;9.65;5.25;;;;;;;16.18;52.00;93329.06;5067506;28;20024;-49
2021/08/17 02:32:31;;;;;;;8.35;6.07;;;;;;;16.14;52.38;93317.63;5061155;28;20025;-47
2021/08/17 02:34:57;;;;;;;6.10;5.55;;;;;;;16.03;52.68;93315.44;5071140;28;20428;-48
2021/08/17 02:37:23;;;;;;;5.40;4.90;;;;;;;16.04;52.53;93318.97;5070700;28;20048;-48
2021/08/17 02:39:48;;;;;;;6.10;5.50;;;;;;;16.05;53.10;93320.44;5071255;28;20099;-48
2021/08/17 02:42:14;;;;;;;5.63;5.10;;;;;;;16.04;52.45;93322.50;5070809;28;20474;-47
2021/08/17 02:44:40;;;;;;;9.52;5.05;;;;;;;15.79;53.03;93289.38;5071011;28;20520;-49
2021/08/17 02:47:05;;;;;;;8.23;5.57;;;;;;;16.07;52.66;93326.16;5070901;28;20508;-53
2021/08/17 02:49:32;;;;;;;7.90;5.57;;;;;;;16.02;52.80;93333.50;5070729;28;20029;-54
2021/08/17 02:52:00;;;;;;;5.97;5.38;;;;;;;16.04;52.83;93325.28;5070823;28;20051;-54
2021/08/17 02:54:25;;;;;;;6.93;5.13;;;;;;;15.93;52.94;93326.59;5070728;28;20501;-55
2021/08/17 02:56:51;;;;;;;7.88;5.30;;;;;;;16.00;53.05;93330.56;5070479;28;20060;-54
2021/08/17 02:59:16;;;;;;;6.55;5.55;;;;;;;15.94;53.44;93335.66;5069364;28;20021;-54
2021/08/17 03:01:42;;;;;;;8.43;5.85;;;;;;;15.82;53.29;93329.25;5070389;28;20028;-52
2021/08/17 03:04:07;;;;;;;6.82;5.32;;;;;;;15.81;53.35;93339.63;5070523;28;20036;-51
2021/08/17 03:06:33;;;;;;;14.13;6.03;;;;;;;15.70;54.53;93333.94;5070160;28;20027;-51
2021/08/17 03:08:58;;;;;;;9.93;5.40;;;;;;;15.63;54.37;93341.09;5070658;28;20028;-58
2021/08/17 03:11:25;;;;;;;8.40;5.57;;;;;;;15.68;53.82;93339.34;5070619;28;20405;-58
2021/08/17 03:13:50;;;;;;;13.82;5.97;;;;;;;15.60;54.52;93338.75;5069910;28;20016;-48
2021/08/17 03:16:16;;;;;;;30.30;6.63;;;;;;;15.63;54.60;93340.38;5070294;28;20017;-49
2021/08/17 03:18:41;;;;;;;16.05;6.32;;;;;;;15.62;54.67;93339.63;5070120;28;20043;-53
2021/08/17 03:21:07;;;;;;;14.68;6.15;;;;;;;15.64;54.73;93341.81;5061072;28;20028;-51
2021/08/17 03:23:32;;;;;;;16.92;6.70;;;;;;;15.62;54.17;93341.66;5058447;28;20029;-57
2021/08/17 03:25:58;;;;;;;6.78;6.13;;;;;;;15.61;54.00;93340.97;5059118;28;20075;-58
2021/08/17 03:28:23;;;;;;;10.82;4.93;;;;;;;15.57;54.41;93342.72;5059633;28;20524;-58
2021/08/17 03:30:49;;;;;;;10.00;5.43;;;;;;;15.52;54.26;93344.47;5060325;28;20041;-58
2021/08/17 03:33:15;;;;;;;12.55;6.05;;;;;;;15.42;55.19;93340.88;5058053;28;20485;-58
2021/08/17 03:35:40;;;;;;;32.42;7.88;;;;;;;15.39;55.12;93341.31;5059982;28;20048;-60
2021/08/17 03:38:05;;;;;;;14.80;5.80;;;;;;;15.44;54.97;93345.91;5065121;28;20456;-59
2021/08/17 03:40:31;;;;;;;11.57;5.72;;;;;;;15.37;55.41;93346.75;5059801;28;20028;-59
2021/08/17 03:42:56;;;;;;;8.75;5.05;;;;;;;15.37;54.97;93341.19;5059047;28;20147;-59
2021/08/17 03:45:22;;;;;;;15.93;5.63;;;;;;;15.39;55.30;93347.63;5059736;28;20020;-59
2021/08/17 03:47:49;;;;;;;15.75;6.78;;;;;;;15.37;55.34;93332.84;5056817;28;20516;-60
2021/08/17 03:50:15;;;;;;;11.77;6.35;;;;;;;15.36;55.55;93345.25;5058038;28;20421;-59
2021/08/17 03:52:42;;;;;;;14.70;5.75;;;;;;;15.29;55.48;93338.50;5058443;28;20024;-58
2021/08/17 03:55:08;;;;;;;12.73;5.70;;;;;;;15.35;55.27;93339.00;5059623;28;20396;-57
2021/08/17 03:57:34;;;;;;;10.57;5.95;;;;;;;15.27;55.89;93338.38;5043155;28;20029;-58
2021/08/17 04:00:00;;;;;;;24.77;7.25;;;;;;;15.15;55.88;93337.47;5059300;28;20040;-57
2021/08/17 04:02:25;;;;;;;7.70;5.88;;;;;;;15.10;56.05;93339.22;5059819;28;20075;-58
2021/08/17 04:04:51;;;;;;;9.02;6.05;;;;;;;14.99;56.75;93331.41;5058463;28;20097;-58
2021/08/17 04:07:16;;;;;;;10.32;5.90;;;;;;;15.04;56.05;93327.63;5060153;28;20404;-58
2021/08/17 04:09:42;;;;;;;7.53;6.20;;;;;;;15.09;56.86;93342.56;5062577;28;20047;-51
2021/08/17 04:12:07;;;;;;;8.40;6.03;;;;;;;15.07;56.36;93339.66;5067297;28;20035;-56
2021/08/17 04:14:33;;;;;;;6.97;5.60;;;;;;;14.84;56.66;93306.63;5066920;28;20549;-56
2021/08/17 04:16:58;;;;;;;7.00;5.70;;;;;;;15.18;55.83;93348.16;5060524;28;20824;-56
2021/08/17 04:19:25;;;;;;;9.63;5.72;;;;;;;15.23;56.22;93346.41;5057382;28;20071;-57
2021/08/17 04:21:50;;;;;;;7.57;5.70;;;;;;;15.19;56.59;93332.94;5061421;28;20025;-59
2021/08/17 04:24:16;;;;;;;6.82;5.93;;;;;;;15.20;56.72;93333.69;5066000;28;20055;-59
2021/08/17 04:26:41;;;;;;;8.55;5.57;;;;;;;15.25;56.89;93327.09;5066943;28;20087;-59
2021/08/17 04:29:07;;;;;;;6.28;5.35;;;;;;;15.28;56.43;93328.72;5067237;28;20102;-59
2021/08/17 04:31:32;;;;;;;9.57;5.85;;;;;;;15.30;56.60;93319.78;5047305;28;20041;-57
2021/08/17 04:33:58;;;;;;;8.52;5.78;;;;;;;15.28;56.71;93314.06;5047294;28;20116;-57
2021/08/17 04:36:23;;;;;;;8.75;5.65;;;;;;;15.38;56.08;93323.16;5046876;28;20102;-58
2021/08/17 04:38:48;;;;;;;13.38;5.65;;;;;;;15.41;56.65;93324.78;5047036;28;20021;-58
2021/08/17 04:41:14;;;;;;;9.25;6.20;;;;;;;15.47;55.75;93333.59;5047057;28;20090;-58
2021/08/17 04:43:39;;;;;;;13.13;7.10;;;;;;;15.53;55.65;93331.25;5047482;28;20066;-57
2021/08/17 04:46:05;;;;;;;15.40;7.10;;;;;;;15.60;55.15;93339.47;5047089;28;20131;-58
2021/08/17 04:48:30;;;;;;;10.85;6.75;;;;;;;15.66;55.43;93334.34;5047120;28;20028;-57
2021/08/17 04:50:58;;;;;;;11.55;6.57;;;;;;;15.72;55.56;93336.88;5047122;28;20099;-55
2021/08/17 04:53:23;;;;;;;8.10;6.05;;;;;;;15.73;55.33;93339.06;5050231;28;20024;-52
2021/08/17 04:55:48;;;;;;;7.93;6.45;;;;;;;15.80;55.23;93340.97;5051063;28;20027;-54
2021/08/17 04:58:14;;;;;;;11.00;6.60;;;;;;;15.87;55.83;93336.56;5050747;28;20033;-57
2021/08/17 05:00:44;;;;;;;14.63;6.20;;;;;;;15.97;55.37;93334.50;5068642;28;20036;-57
2021/08/17 05:03:10;;;;;;;13.48;6.15;;;;;;;16.04;55.48;93341.25;5072389;28;20115;-55
2021/08/17 05:05:35;;;;;;;12.52;6.63;;;;;;;16.11;55.92;93332.00;5073480;28;20043;-57
2021/08/17 05:08:11;;;;;;;18.73;5.90;;;;;;;16.21;55.52;93330.69;5073457;28;20028;-57
2021/08/17 05:10:37;;;;;;;15.75;6.40;;;;;;;16.31;55.97;93336.22;5073450;28;20421;-57
2021/08/17 05:13:03;;;;;;;12.02;4.88;;;;;;;16.37;55.72;93326.25;5073385;28;20059;-56
2021/08/17 05:15:30;;;;;;;9.50;5.03;;;;;;;16.48;54.69;93338.84;5072683;28;20535;-56
2021/08/17 05:17:55;;;;;;;8.35;5.30;;;;;;;16.56;54.98;93336.66;5073039;28;20528;-57
2021/08/17 05:20:21;;;;;;;19.98;7.50;;;;;;;16.64;54.98;93326.06;5073182;28;20024;-57
2021/08/17 05:22:46;;;;;;;11.93;5.50;;;;;;;16.70;54.90;93322.97;5072918;28;20028;-55
2021/08/17 05:25:12;;;;;;;9.60;5.32;;;;;;;16.80;55.44;93320.88;5073035;28;20028;-58
2021/08/17 05:27:37;;;;;;;34.55;7.55;;;;;;;16.92;55.28;93327.28;5072761;28;20032;-57
2021/08/17 05:30:05;;;;;;;28.05;6.72;;;;;;;16.96;55.12;93322.72;5073069;28;20039;-57
2021/08/17 05:32:31;;;;;;;57.55;9.52;;;;;;;17.11;55.10;93335.56;5069970;28;20067;-57
2021/08/17 05:34:56;;;;;;;20.50;5.72;;;;;;;17.22;53.52;93338.44;5072981;28;20060;-57
2021/08/17 05:37:22;;;;;;;53.50;6.85;;;;;;;17.36;54.39;93330.31;5063408;28;20052;-58
2021/08/17 05:39:47;;;;;;;20.55;5.90;;;;;;;17.41;54.06;93334.84;5061035;28;20029;-56
2021/08/17 05:42:13;;;;;;;13.27;5.85;;;;;;;17.54;53.14;93328.03;5067039;28;20028;-55
2021/08/17 05:44:42;;;;;;;27.95;6.65;;;;;;;17.70;53.48;93334.66;5072488;28;20037;-55
2021/08/17 05:47:08;;;;;;;48.42;7.90;;;;;;;17.72;54.89;93315.97;5063528;28;20016;-54
2021/08/17 05:49:36;;;;;;;50.83;9.35;;;;;;;17.87;53.33;93323.22;5061397;28;20031;-56
2021/08/17 05:52:03;;;;;;;17.45;6.97;;;;;;;17.98;52.43;93314.91;5058595;28;20016;-55
2021/08/17 05:54:28;;;;;;;12.68;6.40;;;;;;;18.14;53.28;93323.59;5052627;28;20020;-55
2021/08/17 05:56:57;;;;;;;10.15;5.88;;;;;;;18.31;50.63;93317.69;5060175;28;20555;-50
2021/08/17 05:59:23;;;;;;;12.18;6.85;;;;;;;18.40;50.72;93318.94;5052498;28;20051;-52
2021/08/17 06:01:48;;;;;;;13.70;7.03;;;;;;;18.48;50.60;93322.25;5060094;28;20475;-57
2021/08/17 06:04:14;;;;;;;12.23;7.82;;;;;;;18.58;50.22;93317.31;5060900;28;20043;-57
2021/08/17 06:06:39;;;;;;;8.65;6.53;;;;;;;18.67;49.65;93313.66;5058019;28;20025;-56
2021/08/17 06:09:05;;;;;;;8.95;5.20;;;;;;;18.77;49.83;93306.66;5051192;28;20036;-56
2021/08/17 06:11:30;;;;;;;10.25;5.13;;;;;;;19.01;48.31;93309.47;5051861;28;20025;-58
2021/08/17 06:13:55;;;;;;;14.38;5.15;;;;;;;19.17;48.87;93313.94;5055209;28;20024;-57
2021/08/17 06:16:21;;;;;;;7.22;4.40;;;;;;;19.37;48.23;93306.78;5072095;28;20020;-55
2021/08/17 06:18:46;;;;;;;8.38;4.90;;;;;;;19.59;49.00;93304.56;5071903;28;20452;-59
2021/08/17 06:21:12;;;;;;;12.07;4.55;;;;;;;19.71;46.92;93313.66;5071980;28;20047;-58
2021/08/17 06:23:37;;;;;;;7.03;5.32;;;;;;;19.57;48.54;93273.66;5065617;28;20013;-57
2021/08/17 06:26:03;;;;;;;6.45;4.75;;;;;;;19.86;48.44;93313.13;5061652;28;20390;-59
2021/08/17 06:28:28;;;;;;;380.67;33.92;;;;;;;20.04;48.18;93302.25;5059863;28;20058;-58
2021/08/17 06:30:54;;;;;;;9.27;4.25;;;;;;;20.16;47.09;93303.66;5060777;28;20052;-58
2021/08/17 06:33:19;;;;;;;4.53;4.10;;;;;;;20.30;46.98;93303.75;5061572;28;20766;-54
2021/08/17 06:35:45;;;;;;;25.77;4.95;;;;;;;20.41;45.29;93302.97;5058926;28;20526;-56
2021/08/17 06:38:11;;;;;;;99.93;9.43;;;;;;;20.54;44.68;93293.13;5060583;28;20024;-55
2021/08/17 06:40:37;;;;;;;23.70;5.25;;;;;;;20.54;45.43;93291.06;5060435;28;20028;-56
2021/08/17 06:43:02;;;;;;;24.35;5.65;;;;;;;20.63;45.31;93290.16;5059295;28;20043;-57
2021/08/17 06:45:28;;;;;;;39.55;7.25;;;;;;;20.82;44.44;93295.41;5060958;28;20024;-50
2021/08/17 06:47:55;;;;;;;21.10;6.03;;;;;;;20.96;44.38;93298.97;5062000;28;20040;-53
2021/08/17 06:50:21;;;;;;;15.27;5.63;;;;;;;21.03;44.91;93288.81;5059424;28;20485;-57
2021/08/17 06:52:46;;;;;;;7.95;4.50;;;;;;;21.30;45.25;93297.28;5061274;28;20083;-54
2021/08/17 06:55:12;;;;;;;13.32;4.35;;;;;;;21.46;45.85;93292.47;5059453;28;20021;-58
2021/08/17 06:57:39;;;;;;;3.95;3.47;;;;;;;21.62;42.38;93293.31;5059380;28;20078;-54
2021/08/17 07:00:07;;;;;;;6.07;3.80;;;;;;;21.69;42.45;93283.84;5060557;28;20028;-56
2021/08/17 07:02:33;;;;;;;5.53;4.05;;;;;;;21.83;42.89;93284.56;5059452;28;20028;-58
2021/08/17 07:04:59;;;;;;;8.63;4.07;;;;;;;22.00;43.51;93282.56;5059139;28;20028;-58
2021/08/17 07:07:24;;;;;;;8.15;3.60;;;;;;;22.09;43.28;93287.22;5060640;28;20035;-58
2021/08/17 07:09:50;;;;;;;4.07;3.60;;;;;;;22.20;42.60;93286.38;5058996;28;20067;-58
2021/08/17 07:12:15;;;;;;;6.43;3.88;;;;;;;22.15;42.20;93262.22;5059584;28;20024;-57
2021/08/17 07:14:41;;;;;;;18.20;4.55;;;;;;;22.39;43.24;93266.88;5059015;28;20036;-58
2021/08/17 07:17:06;;;;;;;5.40;3.53;;;;;;;22.65;41.75;93281.53;5060788;28;20470;-56
2021/08/17 07:19:31;;;;;;;6.97;3.72;;;;;;;22.91;41.72;93276.38;5059365;28;20424;-61
2021/08/17 07:21:58;;;;;;;35.60;17.17;;;;;;;23.18;41.17;93276.19;5059263;28;20516;-58
2021/08/17 07:24:24;;;;;;;7.45;4.32;;;;;;;23.54;39.77;93283.44;5060277;28;20017;-58
2021/08/17 07:26:49;;;;;;;4.95;3.63;;;;;;;24.15;39.02;93275.47;5058887;28;20064;-58
2021/08/17 07:29:15;;;;;;;4.47;3.20;;;;;;;26.02;35.05;93279.03;5059225;28;20474;-59
2021/08/17 07:31:40;;;;;;;21.63;4.30;;;;;;;28.13;31.50;93267.78;5060196;28;20102;-60
2021/08/17 07:34:06;;;;;;;8.48;4.40;;;;;;;29.60;28.29;93271.97;5050487;28;20025;-56
2021/08/17 07:36:35;;;;;;;6.28;3.90;;;;;;;30.37;27.60;93271.34;5050230;28;20510;-57
2021/08/17 07:39:00;;;;;;;3.38;3.08;;;;;;;31.32;23.43;93265.00;5050402;28;20025;-57
2021/08/17 07:41:26;;;;;;;4.78;3.58;;;;;;;31.94;23.37;93272.97;5049537;28;20041;-57
2021/08/17 07:43:52;;;;;;;4.57;3.67;;;;;;;31.77;21.62;93277.75;5049114;28;20025;-56
2021/08/17 07:46:18;;;;;;;4.10;3.25;;;;;;;32.53;20.97;93275.03;5049426;28;20071;-57
2021/08/17 07:48:43;;;;;;;6.50;3.65;;;;;;;32.75;21.53;93280.25;5061588;28;20055;-56
2021/08/17 07:51:09;;;;;;;5.55;3.55;;;;;;;32.84;20.29;93276.75;5069428;28;20032;-57
2021/08/17 07:53:34;;;;;;;4.35;3.55;;;;;;;32.34;21.48;93259.13;5069380;28;20029;-57
2021/08/17 07:56:00;;;;;;;4.47;3.80;;;;;;;32.21;20.65;93276.84;5069887;28;20059;-57
2021/08/17 07:58:25;;;;;;;4.63;3.70;;;;;;;32.12;21.23;93273.91;5070416;28;20028;-58
2021/08/17 08:00:50;;;;;;;5.20;3.97;;;;;;;32.08;22.13;93271.00;5070524;28;20485;-57
2021/08/17 08:03:16;;;;;;;6.50;3.50;;;;;;;31.93;21.56;93274.38;5070467;28;20039;-56
2021/08/17 08:05:41;;;;;;;4.55;3.47;;;;;;;32.36;20.88;93247.72;5070340;28;20523;-57
2021/08/17 08:08:07;;;;;;;5.15;3.55;;;;;;;32.75;20.69;93275.25;5070124;28;20658;-57
2021/08/17 08:10:32;;;;;;;9.82;3.85;;;;;;;33.42;20.01;93264.28;5070296;28;20081;-56
2021/08/17 08:12:58;;;;;;;5.75;3.50;;;;;;;33.76;19.65;93260.91;5070129;28;20473;-57
2021/08/17 08:15:23;;;;;;;6.35;3.67;;;;;;;34.68;18.25;93263.34;5069614;28;20066;-58
2021/08/17 08:17:49;;;;;;;4.70;3.60;;;;;;;34.54;17.49;93264.06;5070309;28;20058;-57
2021/08/17 08:20:14;;;;;;;4.28;3.67;;;;;;;34.57;17.92;93264.75;5070266;28;20024;-57
2021/08/17 08:22:40;;;;;;;5.93;4.07;;;;;;;36.10;17.11;93267.47;5069996;28;20478;-57
2021/08/17 08:25:06;;;;;;;4.63;3.80;;;;;;;37.05;15.19;93245.31;5069813;28;20032;-57
2021/08/17 08:27:33;;;;;;;4.10;3.70;;;;;;;37.00;15.61;93260.47;5072041;28;20025;-57
2021/08/17 08:29:59;;;;;;;4.30;3.90;;;;;;;36.27;15.73;93263.06;5073916;28;20039;-58
2021/08/17 08:32:24;;;;;;;6.03;3.75;;;;;;;37.73;14.11;93263.38;5073798;28;20107;-58
2021/08/17 08:34:50;;;;;;;9.25;4.97;;;;;;;38.00;13.72;93246.50;5073813;28;20055;-58
2021/08/17 08:37:15;;;;;;;5.43;4.82;;;;;;;37.41;14.66;93255.78;5073610;28;20048;-58
2021/08/17 08:39:41;;;;;;;7.65;5.85;;;;;;;37.46;13.58;93259.34;5073812;28;20028;-57
2021/08/17 08:42:07;;;;;;;6.97;5.78;;;;;;;38.18;14.30;93252.78;5073670;28;20085;-58
2021/08/17 08:44:33;;;;;;;5.32;4.82;;;;;;;38.49;14.22;93247.31;5063535;28;20032;-58
2021/08/17 08:46:59;;;;;;;6.68;4.30;;;;;;;40.18;12.81;93243.75;5053849;28;20036;-58
2021/08/17 08:49:25;;;;;;;6.72;4.93;;;;;;;41.01;12.01;93249.13;5052289;28;20032;-58
2021/08/17 08:51:50;;;;;;;6.65;4.47;;;;;;;40.04;13.10;93244.75;5052366;28;20082;-58
2021/08/17 08:54:16;;;;;;;6.45;4.60;;;;;;;41.07;12.32;93243.19;5052238;28;20025;-58
2021/08/17 08:56:41;;;;;;;5.35;4.40;;;;;;;41.27;11.46;93239.09;5053335;28;20037;-58
2021/08/17 08:59:07;;;;;;;5.43;4.93;;;;;;;41.27;12.76;93245.63;5053364;28;20020;-58
2021/08/17 09:01:32;;;;;;;6.05;4.05;;;;;;;39.60;12.79;93240.50;5053601;28;20025;-58
2021/08/17 09:03:57;;;;;;;8.45;4.60;;;;;;;39.44;13.13;93223.44;5053297;28;20437;-58
2021/08/17 09:06:25;;;;;;;6.10;4.47;;;;;;;39.49;13.25;93229.84;5053445;28;20052;-58
2021/08/17 09:09:05;;;;;;;5.57;5.07;;;;;;;39.69;13.11;93226.63;5053619;28;20025;-58
2021/08/17 09:11:30;;;;;;;5.72;4.60;;;;;;;39.73;12.98;93221.47;5052970;28;20021;-58
2021/08/17 09:14:15;;;;;;;13.02;4.65;;;;;;;40.08;13.50;93219.34;5056450;28;20032;-58
2021/08/17 09:16:40;;;;;;;5.10;4.65;;;;;;;41.44;12.00;93217.63;5073276;28;20024;-58
2021/08/17 09:19:21;;;;;;;17.60;10.80;;;;;;;42.78;11.32;93214.53;5073297;28;20110;-58
2021/08/17 09:21:47;;;;;;;6.13;4.78;;;;;;;43.06;11.29;93207.16;5072936;28;20032;-55
2021/08/17 09:24:14;;;;;;;5.20;4.13;;;;;;;43.67;10.48;93207.25;5072830;28;20028;-55
2021/08/17 09:26:44;;;;;;;;;;;;;;;43.17;10.63;93203.13;5073762;28;20024;-56
2021/08/17 09:29:09;;;;;;;4.22;3.83;;;;;;;42.15;11.89;93204.09;5072869;28;19915;-56
2021/08/17 09:31:36;;;;;;;5.70;4.10;;;;;;;40.23;13.35;93202.38;5055181;28;20032;-58
2021/08/17 09:34:03;;;;;;;5.22;4.15;;;;;;;41.77;12.74;93202.28;5073058;28;20099;-59
2021/08/17 09:36:42;;;;;;;4.97;4.20;;;;;;;41.65;12.29;93197.53;5072396;28;20581;-59
2021/08/17 09:39:09;;;;;;;5.00;4.53;;;;;;;41.97;11.94;93187.94;5072471;28;20078;-58
2021/08/17 09:41:34;;;;;;;37.30;23.88;;;;;;;42.75;11.96;93193.59;5072476;28;20032;-58
2021/08/17 09:44:04;;;;;;;5.50;5.00;;;;;;;43.81;10.70;93182.78;5072927;28;20039;-58
2021/08/17 09:46:34;;;;;;;4.78;4.28;;;;;;;42.90;10.99;93185.88;5072819;28;20466;-58
2021/08/17 09:49:17;;;;;;;4.47;4.00;;;;;;;42.94;10.62;93179.22;5072507;28;20028;-58
2021/08/17 09:51:43;;;;;;;3.78;3.45;;;;;;;42.84;11.44;93182.41;5072745;28;20131;-58
2021/08/17 09:54:13;;;;;;;4.80;3.90;;;;;;;42.72;11.43;93182.78;5072504;28;20525;-59
2021/08/17 09:56:39;;;;;;;5.93;4.10;;;;;;;41.53;12.47;93178.28;5072357;28;20505;-59
2021/08/17 09:59:05;;;;;;;5.10;4.60;;;;;;;41.05;13.20;93173.72;5072145;28;20054;-59
2021/08/17 10:01:30;;;;;;;5.85;4.18;;;;;;;41.41;12.43;93164.09;5072128;28;20028;-59
2021/08/17 10:03:58;;;;;;;4.55;3.90;;;;;;;41.94;12.40;93171.34;5072511;28;20098;-58
2021/08/17 10:06:25;;;;;;;8.00;4.30;;;;;;;41.47;12.69;93175.53;5072100;28;20028;-58
2021/08/17 10:08:51;;;;;;;4.95;4.55;;;;;;;41.04;13.02;93171.59;5072199;28;20032;-58
2021/08/17 10:11:17;;;;;;;4.80;4.30;;;;;;;41.28;12.81;93168.78;5070893;28;20024;-59
2021/08/17 10:13:43;;;;;;;4.47;4.05;;;;;;;40.27;13.54;93178.44;5071896;28;20020;-58
2021/08/17 10:16:08;;;;;;;5.82;4.50;;;;;;;40.93;13.32;93167.53;5071934;28;20024;-58
2021/08/17 10:18:36;;;;;;;7.25;5.30;;;;;;;40.81;13.46;93143.16;5071805;28;20028;-58
2021/08/17 10:21:02;;;;;;;6.22;5.70;;;;;;;40.99;13.26;93159.41;5070988;28;20039;-59
2021/08/17 10:23:28;;;;;;;6.93;6.22;;;;;;;41.27;12.93;93158.69;5071777;28;20025;-58
2021/08/17 10:25:55;;;;;;;5.85;5.20;;;;;;;40.66;14.54;93159.47;5071724;28;20049;-58
2021/08/17 10:28:31;;;;;;;5.00;4.15;;;;;;;41.38;13.20;93156.22;5071775;28;20035;-58
2021/08/17 10:30:59;;;;;;;7.05;5.03;;;;;;;41.74;12.95;93151.63;5071239;28;20115;-58
2021/08/17 10:33:46;;;;;;;;;;;;;;;41.91;12.92;93149.69;5054577;28;20032;-58
2021/08/17 10:36:29;;;;;;;7.82;5.28;;;;;;;42.04;12.88;93151.44;5062802;28;19916;-55
2021/08/17 10:38:54;;;;;;;5.60;5.03;;;;;;;42.18;12.32;93133.66;5069360;28;20047;-56
2021/08/17 10:41:31;;;;;;;8.35;5.50;;;;;;;43.21;11.82;93150.00;5068774;28;20550;-56
2021/08/17 10:43:56;;;;;;;8.63;7.53;;;;;;;44.25;10.94;93143.31;5061633;28;20055;-57
2021/08/17 10:46:39;;;;;;;9.15;6.22;;;;;;;45.02;10.88;93141.00;5068637;28;20486;-55
2021/08/17 10:49:23;;;;;;;6.65;5.82;;;;;;;45.62;10.42;93142.84;5068630;28;20055;-55
2021/08/17 10:51:50;;;;;;;7.07;6.38;;;;;;;45.88;9.61;93114.69;5069251;28;20173;-55
2021/08/17 10:54:16;;;;;;;7.35;6.65;;;;;;;46.63;9.58;93136.03;5069397;28;20075;-56
2021/08/17 10:56:42;;;;;;;7.75;7.03;;;;;;;46.63;9.41;93138.25;5067772;28;20544;-55
2021/08/17 10:59:08;;;;;;;10.52;7.18;;;;;;;46.34;9.55;93139.59;5068817;28;20032;-57
2021/08/17 11:01:47;;;;;;;7.80;7.10;;;;;;;46.27;9.44;93128.97;5068800;28;20028;-57
2021/08/17 11:04:12;;;;;;;8.48;6.53;;;;;;;45.40;10.03;93129.22;5068495;28;20089;-55
2021/08/17 11:06:39;;;;;;;7.22;6.57;;;;;;;45.00;10.12;93109.03;5068447;28;20036;-56
2021/08/17 11:09:07;;;;;;;13.20;6.63;;;;;;;44.70;10.87;93124.09;5068730;28;20137;-55
2021/08/17 11:11:33;;;;;;;11.77;6.32;;;;;;;45.34;10.29;93120.72;5050564;28;20039;-55
2021/08/17 11:14:13;;;;;;;8.95;6.30;;;;;;;45.30;10.64;93089.53;5067957;28;20413;-56
2021/08/17 11:16:44;;;;;;;8.75;6.20;;;;;;;45.29;10.83;93117.28;5068259;28;20085;-56
2021/08/17 11:19:10;;;;;;;7.47;6.78;;;;;;;45.19;10.21;93108.25;5068889;28;20574;-56
2021/08/17 11:21:44;;;;;;;8.80;7.07;;;;;;;44.62;10.60;93109.88;5068660;28;20467;-55
2021/08/17 11:24:21;;;;;;;8.48;6.80;;;;;;;42.88;11.60;93110.38;5068447;28;20024;-55
2021/08/17 11:26:54;;;;;;;8.02;7.32;;;;;;;42.89;12.14;93111.81;5068534;28;20044;-55
2021/08/17 11:29:25;;;;;;;7.65;6.88;;;;;;;41.76;12.77;93111.69;5068197;28;20119;-55
2021/08/17 11:31:52;;;;;;;9.82;6.90;;;;;;;41.98;13.08;93113.22;5068003;28;20090;-55
2021/08/17 11:34:19;;;;;;;10.00;6.97;;;;;;;41.80;12.30;93111.56;5067736;28;20028;-55
2021/08/17 11:37:05;;;;;;;7.03;6.35;;;;;;;41.90;13.02;93107.66;5067824;28;20083;-55
2021/08/17 11:39:37;;;;;;;12.88;7.18;;;;;;;42.08;12.89;93104.94;5068458;28;20039;-55
2021/08/17 11:42:24;;;;;;;34.05;8.85;;;;;;;42.13;12.93;93103.34;5068159;28;20020;-56
2021/08/17 11:44:52;;;;;;;8.60;6.68;;;;;;;40.24;13.03;93099.69;5068054;28;20027;-55
2021/08/17 11:47:21;;;;;;;9.90;7.20;;;;;;;39.88;14.02;93072.28;5068099;28;20040;-55
2021/08/17 11:49:51;;;;;;;9.15;6.97;;;;;;;39.99;14.03;93093.03;5068564;28;20036;-55
2021/08/17 11:52:25;;;;;;;10.25;6.70;;;;;;;40.03;13.52;93087.13;5070007;28;20040;-57
2021/08/17 11:54:57;;;;;;;8.07;7.28;;;;;;;39.90;14.43;93078.00;5070500;28;20425;-56
2021/08/17 11:57:34;;;;;;;10.45;7.85;;;;;;;40.08;14.30;93079.81;5070378;28;20074;-57
2021/08/17 12:00:07;;;;;;;8.48;7.55;;;;;;;40.42;13.78;93079.00;5070106;28;20028;-57
2021/08/17 12:02:33;;;;;;;8.82;6.85;;;;;;;40.25;14.26;93063.50;5070309;28;20035;-56
2021/08/17 12:05:00;;;;;;;13.68;7.85;;;;;;;40.33;14.53;93063.28;5070323;28;20020;-56
2021/08/17 12:07:27;;;;;;;7.95;6.95;;;;;;;40.35;13.90;93062.53;5070327;28;20039;-57